Time;durP1;ratioP1;P1;durP2;ratioP2;P2;SDS_P1;SDS_P2;PMS_P1;PMS_P2;Temp;Humidity;BMP_temperature;BMP_pressure;BME280_temperature;BME280_humidity;BME280_pressure;Samples;Min_cycle;Max_cycle;Signal;HPM_P1;HPM_P2
2021/06/28 00:01:05;;;;;;;6.78;4.38;;;18.10;99.90;;;;;;5058454;28;20562;-74
2021/06/28 00:03:32;;;;;;;5.80;4.32;;;18.20;99.90;;;;;;5064422;28;20230;-73
2021/06/28 00:05:59;;;;;;;5.50;4.13;;;18.30;99.90;;;;;;5073049;28;20585;-73
2021/06/28 00:08:25;;;;;;;5.47;4.03;;;18.40;99.90;;;;;;5066199;28;20636;-73
2021/06/28 00:10:53;;;;;;;6.85;4.30;;;18.40;99.90;;;;;;5072582;28;20877;-74
2021/06/28 00:13:22;;;;;;;6.03;4.50;;;18.50;99.90;;;;;;5073237;28;20218;-73
2021/06/28 00:15:49;;;;;;;6.28;4.20;;;18.50;99.90;;;;;;5064673;28;20278;-74
2021/06/28 00:18:17;;;;;;;5.78;3.92;;;18.50;99.90;;;;;;5073447;28;20198;-73
2021/06/28 00:20:46;;;;;;;5.68;4.60;;;18.30;99.90;;;;;;5062059;28;20198;-74
2021/06/28 00:23:13;;;;;;;8.35;4.75;;;18.20;99.90;;;;;;5065566;28;20204;-73
2021/06/28 00:25:41;;;;;;;7.22;4.43;;;18.20;99.90;;;;;;5064810;28;20202;-74
2021/06/28 00:28:09;;;;;;;8.10;4.25;;;18.20;99.90;;;;;;5073654;28;20241;-74
2021/06/28 00:30:41;;;;;;;7.47;4.75;;;18.40;99.90;;;;;;5064131;28;20501;-73
2021/06/28 00:33:11;;;;;;;6.80;4.60;;;18.40;99.90;;;;;;5053432;28;20207;-74
2021/06/28 00:35:39;;;;;;;4.68;3.90;;;18.30;99.90;;;;;;5069704;28;20202;-73
2021/06/28 00:38:08;;;;;;;5.10;4.60;;;18.30;99.90;;;;;;5073397;28;20214;-74
2021/06/28 00:40:36;;;;;;;9.32;4.40;;;18.40;99.90;;;;;;5070651;28;20199;-74
2021/06/28 00:43:03;;;;;;;8.70;4.53;;;18.40;99.90;;;;;;5072824;28;20212;-73
2021/06/28 00:45:32;;;;;;;7.53;4.45;;;18.30;99.90;;;;;;5067924;28;20220;-74
2021/06/28 00:48:02;;;;;;;5.65;4.18;;;18.40;99.90;;;;;;5062538;28;20195;-73
2021/06/28 00:50:32;;;;;;;8.13;4.45;;;18.40;99.90;;;;;;5058012;28;20672;-73
2021/06/28 00:53:01;;;;;;;8.63;4.55;;;18.40;99.90;;;;;;5062681;28;20569;-73
2021/06/28 00:55:29;;;;;;;6.97;4.32;;;18.30;99.90;;;;;;5059758;28;20222;-73
2021/06/28 00:57:57;;;;;;;6.93;4.50;;;18.30;99.90;;;;;;5053283;28;20199;-70
2021/06/28 01:00:24;;;;;;;5.07;4.32;;;18.20;99.90;;;;;;5064225;28;20697;-73
2021/06/28 01:02:52;;;;;;;7.28;4.57;;;18.20;99.90;;;;;;5072340;28;20202;-73
2021/06/28 01:05:23;;;;;;;7.63;4.43;;;18.20;99.90;;;;;;5061381;28;20622;-73
2021/06/28 01:07:50;;;;;;;9.57;4.47;;;18.20;99.90;;;;;;5052643;28;20198;-70
2021/06/28 01:10:19;;;;;;;9.93;5.05;;;18.20;99.90;;;;;;5061802;28;20221;-70
2021/06/28 01:12:47;;;;;;;11.25;4.32;;;18.10;99.90;;;;;;5071680;28;20633;-74
2021/06/28 01:15:16;;;;;;;8.43;4.72;;;18.10;99.90;;;;;;5071452;28;20644;-73
2021/06/28 01:17:44;;;;;;;9.70;4.82;;;18.10;99.90;;;;;;5064354;28;20194;-70
2021/06/28 01:20:13;;;;;;;6.43;4.60;;;18.10;99.90;;;;;;5059664;28;20548;-70
2021/06/28 01:22:45;;;;;;;8.52;4.45;;;18.00;99.90;;;;;;5066642;28;20791;-70
2021/06/28 01:25:17;;;;;;;9.70;5.15;;;18.00;99.90;;;;;;5069962;28;20198;-70
2021/06/28 01:27:45;;;;;;;10.85;5.38;;;18.10;99.90;;;;;;5060405;28;20234;-70
2021/06/28 01:30:15;;;;;;;9.93;4.60;;;17.90;99.90;;;;;;5058001;28;20267;-70
2021/06/28 01:32:44;;;;;;;9.05;5.18;;;17.80;99.90;;;;;;5071945;28;20263;-70
2021/06/28 01:35:13;;;;;;;6.13;4.65;;;17.80;99.90;;;;;;5059290;28;20289;-72
2021/06/28 01:37:40;;;;;;;8.18;4.40;;;17.90;99.90;;;;;;5066471;28;20221;-71
2021/06/28 01:40:10;;;;;;;7.03;4.47;;;18.00;99.90;;;;;;5061393;28;20271;-71
2021/06/28 01:42:39;;;;;;;8.27;4.63;;;17.90;99.90;;;;;;5071102;28;20209;-73
2021/06/28 01:45:08;;;;;;;7.63;4.72;;;18.10;99.90;;;;;;5068694;28;20214;-71
2021/06/28 01:47:35;;;;;;;6.90;4.30;;;18.30;99.90;;;;;;5071340;28;20252;-71
2021/06/28 01:50:02;;;;;;;12.10;4.63;;;18.20;99.90;;;;;;5069976;28;20194;-73
2021/06/28 01:52:29;;;;;;;12.85;4.35;;;18.10;99.90;;;;;;5070518;28;20222;-73
2021/06/28 01:54:56;;;;;;;8.30;4.47;;;18.10;99.90;;;;;;5066421;28;20710;-73
2021/06/28 01:57:23;;;;;;;7.25;4.55;;;18.10;99.90;;;;;;5071030;28;20198;-71
2021/06/28 01:59:51;;;;;;;9.90;4.63;;;18.00;99.90;;;;;;5060748;28;20203;-71
2021/06/28 02:02:18;;;;;;;7.97;4.32;;;18.00;99.90;;;;;;5069557;28;20652;-71
2021/06/28 02:04:47;;;;;;;10.68;4.32;;;18.00;99.90;;;;;;5075280;28;20629;-72
2021/06/28 02:07:15;;;;;;;6.28;4.38;;;18.00;99.90;;;;;;5069886;28;20313;-72
2021/06/28 02:09:42;;;;;;;10.82;5.07;;;18.10;99.90;;;;;;5066407;28;20206;-72
2021/06/28 02:12:10;;;;;;;10.77;4.57;;;18.20;99.90;;;;;;5063328;28;20284;-72
2021/06/28 02:14:37;;;;;;;6.70;4.47;;;18.20;99.90;;;;;;5064887;28;20210;-72
2021/06/28 02:17:06;;;;;;;6.47;4.55;;;18.30;99.90;;;;;;5071604;28;20198;-72
2021/06/28 02:19:33;;;;;;;7.28;4.43;;;18.10;99.90;;;;;;5071112;28;20195;-72
2021/06/28 02:22:01;;;;;;;6.93;4.43;;;18.20;99.90;;;;;;5071596;28;20656;-72
2021/06/28 02:24:28;;;;;;;9.23;4.78;;;18.20;99.90;;;;;;5070822;28;20206;-72
2021/06/28 02:26:55;;;;;;;7.50;4.40;;;18.20;99.90;;;;;;5071614;28;20234;-72
2021/06/28 02:29:22;;;;;;;10.70;4.65;;;18.30;99.90;;;;;;5070786;28;20255;-72
2021/06/28 02:31:49;;;;;;;14.90;4.50;;;18.30;99.90;;;;;;5071028;28;20218;-72
2021/06/28 02:34:17;;;;;;;10.73;4.57;;;18.30;99.90;;;;;;5070952;28;20210;-72
2021/06/28 02:36:44;;;;;;;7.90;5.15;;;18.30;99.90;;;;;;5071182;28;20240;-72
2021/06/28 02:39:12;;;;;;;5.32;4.15;;;18.20;99.90;;;;;;5074820;28;20206;-72
2021/06/28 02:41:40;;;;;;;7.35;4.38;;;18.30;99.90;;;;;;5074399;28;20244;-72
2021/06/28 02:44:08;;;;;;;9.80;4.55;;;18.40;99.90;;;;;;5075129;28;20229;-72
2021/06/28 02:46:35;;;;;;;7.03;4.68;;;18.40;99.90;;;;;;5074337;28;20645;-72
2021/06/28 02:49:03;;;;;;;6.20;4.57;;;18.40;99.90;;;;;;5073615;28;20201;-72
2021/06/28 02:51:31;;;;;;;7.13;4.30;;;18.30;99.90;;;;;;5073230;28;20247;-71
2021/06/28 02:53:59;;;;;;;10.13;4.90;;;18.50;99.90;;;;;;5075080;28;20207;-72
2021/06/28 02:56:26;;;;;;;6.88;4.72;;;18.40;99.90;;;;;;5074051;28;20198;-72
2021/06/28 02:58:55;;;;;;;12.77;4.68;;;18.40;99.90;;;;;;5055007;28;20203;-72
2021/06/28 03:01:24;;;;;;;6.30;4.50;;;18.30;99.90;;;;;;5054207;28;20207;-72
2021/06/28 03:03:52;;;;;;;5.65;4.63;;;18.30;99.90;;;;;;5074336;28;20607;-72
2021/06/28 03:06:20;;;;;;;6.43;4.50;;;18.50;99.90;;;;;;5075046;28;20202;-72
2021/06/28 03:08:49;;;;;;;7.63;4.95;;;18.50;99.90;;;;;;5074092;28;20394;-72
2021/06/28 03:11:18;;;;;;;11.60;5.15;;;18.40;99.90;;;;;;5074175;28;20276;-72
2021/06/28 03:13:46;;;;;;;11.55;4.78;;;18.20;99.90;;;;;;5073788;28;20598;-72
2021/06/28 03:16:13;;;;;;;12.90;5.35;;;18.00;99.90;;;;;;5074447;28;20257;-72
2021/06/28 03:18:40;;;;;;;7.97;5.18;;;17.90;99.90;;;;;;5057048;28;20202;-72
2021/06/28 03:21:10;;;;;;;10.98;5.72;;;17.80;99.90;;;;;;5054606;28;20555;-71
2021/06/28 03:23:38;;;;;;;12.70;6.13;;;17.80;99.90;;;;;;5054512;28;20207;-71
2021/06/28 03:26:07;;;;;;;10.52;5.97;;;17.90;99.90;;;;;;5054358;28;20195;-72
2021/06/28 03:28:35;;;;;;;13.98;6.18;;;17.90;99.90;;;;;;5054565;28;20194;-72
2021/06/28 03:31:02;;;;;;;9.23;5.68;;;17.90;99.90;;;;;;5053241;28;20264;-72
2021/06/28 03:33:30;;;;;;;11.18;5.80;;;18.00;99.90;;;;;;5054228;28;20203;-72
2021/06/28 03:35:57;;;;;;;9.32;5.53;;;18.10;99.90;;;;;;5064882;28;20252;-72
2021/06/28 03:38:24;;;;;;;7.28;5.60;;;18.10;99.90;;;;;;5074210;28;20206;-72
2021/06/28 03:40:51;;;;;;;8.38;5.60;;;18.00;99.90;;;;;;5063290;28;20549;-71
2021/06/28 03:43:19;;;;;;;9.05;5.57;;;17.90;99.90;;;;;;5054197;28;20653;-71
2021/06/28 03:45:47;;;;;;;10.85;6.03;;;18.00;99.90;;;;;;5054495;28;20211;-72
2021/06/28 03:48:14;;;;;;;10.70;5.85;;;18.10;99.90;;;;;;5054063;28;20211;-72
2021/06/28 03:50:42;;;;;;;8.82;5.50;;;18.10;99.90;;;;;;5052604;28;20252;-73
2021/06/28 03:53:10;;;;;;;8.15;4.93;;;18.10;99.90;;;;;;5053618;28;20585;-73
2021/06/28 03:55:37;;;;;;;8.93;5.50;;;18.10;99.90;;;;;;5058450;28;20278;-73
2021/06/28 03:58:04;;;;;;;7.53;5.20;;;18.10;99.90;;;;;;5073618;28;20206;-73
2021/06/28 04:00:33;;;;;;;8.38;5.03;;;18.20;99.90;;;;;;5069319;28;20267;-73
2021/06/28 04:03:01;;;;;;;12.70;5.55;;;18.20;99.90;;;;;;5062702;28;20267;-72
2021/06/28 04:05:28;;;;;;;9.80;5.78;;;18.10;99.90;;;;;;5069221;28;20272;-79
2021/06/28 04:07:55;;;;;;;11.23;5.25;;;18.00;99.90;;;;;;5072261;28;20722;-76
2021/06/28 04:10:25;;;;;;;10.57;5.00;;;18.10;99.90;;;;;;5080197;28;20202;-74
2021/06/28 04:12:54;;;;;;;11.43;5.50;;;18.20;99.90;;;;;;5072454;28;20230;-74
2021/06/28 04:15:22;;;;;;;10.98;5.35;;;18.20;99.90;;;;;;5070107;28;20264;-74
2021/06/28 04:17:53;;;;;;;9.43;5.22;;;18.00;99.90;;;;;;5060560;28;20202;-74
2021/06/28 04:20:22;;;;;;;10.25;5.28;;;18.10;99.90;;;;;;5069579;28;20255;-74
2021/06/28 04:22:50;;;;;;;14.85;5.65;;;18.10;99.90;;;;;;5071842;28;20648;-74
2021/06/28 04:25:21;;;;;;;10.05;5.10;;;18.10;99.90;;;;;;5069314;28;20206;-71
2021/06/28 04:27:48;;;;;;;9.90;5.38;;;18.10;99.90;;;;;;5070352;28;20203;-74
2021/06/28 04:30:18;;;;;;;8.70;5.03;;;18.30;99.90;;;;;;5069858;28;20207;-74
2021/06/28 04:32:46;;;;;;;8.98;5.07;;;18.30;99.90;;;;;;5073839;28;20233;-76
2021/06/28 04:35:17;;;;;;;6.60;5.35;;;18.40;99.90;;;;;;5073812;28;20206;-72
2021/06/28 04:37:45;;;;;;;12.52;5.68;;;18.50;99.90;;;;;;5071919;28;20240;-71
2021/06/28 04:40:17;;;;;;;11.35;5.65;;;18.50;99.90;;;;;;5070183;28;20222;-71
2021/06/28 04:42:44;;;;;;;7.25;5.40;;;18.60;99.90;;;;;;5072222;28;20264;-74
2021/06/28 04:45:13;;;;;;;7.13;5.65;;;18.70;99.90;;;;;;5071793;28;20206;-74
2021/06/28 04:47:40;;;;;;;8.48;5.40;;;18.60;99.90;;;;;;5072339;28;20202;-74
2021/06/28 04:50:10;;;;;;;7.43;4.82;;;18.70;99.90;;;;;;5070869;28;20206;-74
2021/06/28 04:52:38;;;;;;;11.90;5.60;;;18.70;99.90;;;;;;5072733;28;20226;-73
2021/06/28 04:55:07;;;;;;;8.02;5.50;;;18.60;99.90;;;;;;5064890;28;20203;-71
2021/06/28 04:57:35;;;;;;;9.07;5.47;;;18.60;99.90;;;;;;5069792;28;20199;-74
2021/06/28 05:00:02;;;;;;;9.20;5.80;;;18.40;99.90;;;;;;5067719;28;20244;-73
2021/06/28 05:02:29;;;;;;;9.98;6.00;;;18.30;99.90;;;;;;5070067;28;20202;-71
2021/06/28 05:04:56;;;;;;;7.68;5.47;;;18.40;99.90;;;;;;5070000;28;20256;-73
2021/06/28 05:07:23;;;;;;;9.70;5.97;;;18.50;99.90;;;;;;5075106;28;20255;-73
2021/06/28 05:09:51;;;;;;;7.55;5.57;;;18.60;99.90;;;;;;5063093;28;20198;-71
2021/06/28 05:12:18;;;;;;;8.60;6.00;;;18.60;99.90;;;;;;5064108;28;20226;-71
2021/06/28 05:14:46;;;;;;;8.57;5.43;;;18.70;99.90;;;;;;5064038;28;20209;-73
2021/06/28 05:17:13;;;;;;;8.00;5.25;;;18.60;99.90;;;;;;5066224;28;20210;-70
2021/06/28 05:19:40;;;;;;;10.02;5.57;;;18.50;99.90;;;;;;5073547;28;20263;-73
2021/06/28 05:22:08;;;;;;;9.07;5.75;;;18.60;99.90;;;;;;5068591;28;20718;-71
2021/06/28 05:24:35;;;;;;;8.23;5.18;;;18.60;99.90;;;;;;5072284;28;20308;-70
2021/06/28 05:27:04;;;;;;;9.32;5.78;;;18.70;99.90;;;;;;5068221;28;20248;-71
2021/06/28 05:29:31;;;;;;;9.93;5.95;;;18.60;99.90;;;;;;5069377;28;20450;-71
2021/06/28 05:31:58;;;;;;;7.43;5.13;;;18.50;99.90;;;;;;5069437;28;20313;-71
2021/06/28 05:34:25;;;;;;;12.50;5.93;;;18.60;99.90;;;;;;5069773;28;20206;-70
2021/06/28 05:36:52;;;;;;;13.18;5.60;;;18.60;99.90;;;;;;5070652;28;20319;-70
2021/06/28 05:39:19;;;;;;;9.15;5.57;;;18.70;99.90;;;;;;5056921;28;20202;-70
2021/06/28 05:41:46;;;;;;;10.68;6.30;;;18.70;99.90;;;;;;5070089;28;20209;-71
2021/06/28 05:44:15;;;;;;;8.98;5.75;;;18.70;99.90;;;;;;5067995;28;20202;-70
2021/06/28 05:46:42;;;;;;;10.68;6.40;;;18.70;99.90;;;;;;5070495;28;20263;-70
2021/06/28 05:49:08;;;;;;;10.70;6.53;;;18.80;99.90;;;;;;5068589;28;20209;-70
2021/06/28 05:51:36;;;;;;;11.18;6.18;;;19.00;99.90;;;;;;5068930;28;20211;-71
2021/06/28 05:54:03;;;;;;;11.38;6.25;;;19.00;99.90;;;;;;5054776;28;20215;-70
2021/06/28 05:56:30;;;;;;;12.38;6.47;;;19.00;99.90;;;;;;5063972;28;20206;-70
2021/06/28 05:58:57;;;;;;;18.10;6.13;;;19.10;99.90;;;;;;5076011;28;20706;-70
2021/06/28 06:01:26;;;;;;;17.52;7.55;;;19.20;99.90;;;;;;5067752;28;20202;-70
2021/06/28 06:03:53;;;;;;;17.05;6.85;;;19.20;99.90;;;;;;5070933;28;20202;-70
2021/06/28 06:06:20;;;;;;;10.60;6.20;;;19.30;99.90;;;;;;5069862;28;20244;-70
2021/06/28 06:08:47;;;;;;;10.70;6.38;;;19.20;99.90;;;;;;5067870;28;20620;-70
2021/06/28 06:11:14;;;;;;;8.90;6.45;;;19.20;99.90;;;;;;5067257;28;20253;-70
2021/06/28 06:13:41;;;;;;;9.98;6.97;;;19.30;99.90;;;;;;5071615;28;20253;-70
2021/06/28 06:16:08;;;;;;;14.98;6.78;;;19.40;99.90;;;;;;5067356;28;20202;-71
2021/06/28 06:18:36;;;;;;;13.48;6.75;;;19.30;99.90;;;;;;5053032;28;20230;-70
2021/06/28 06:21:03;;;;;;;9.70;6.55;;;19.30;99.90;;;;;;5059243;28;20240;-70
2021/06/28 06:23:30;;;;;;;24.38;7.10;;;19.30;99.90;;;;;;5071959;28;20206;-70
2021/06/28 06:25:57;;;;;;;14.02;6.63;;;19.40;99.90;;;;;;5060952;28;20659;-70
2021/06/28 06:28:24;;;;;;;12.73;6.97;;;19.40;99.90;;;;;;5079933;28;20228;-71
2021/06/28 06:30:51;;;;;;;10.35;6.57;;;19.60;99.90;;;;;;5072609;28;20202;-71
2021/06/28 06:33:21;;;;;;;13.18;7.07;;;19.50;99.90;;;;;;5071638;28;20226;-70
2021/06/28 06:35:50;;;;;;;9.52;6.75;;;19.60;99.90;;;;;;5071774;28;20237;-70
2021/06/28 06:38:17;;;;;;;9.90;6.90;;;19.60;99.90;;;;;;5071432;28;20217;-70
2021/06/28 06:40:47;;;;;;;9.75;7.20;;;19.60;99.90;;;;;;5070614;28;20267;-70
2021/06/28 06:43:15;;;;;;;10.65;6.55;;;19.70;99.90;;;;;;5064215;28;20206;-70
2021/06/28 06:45:42;;;;;;;14.88;7.72;;;19.80;99.90;;;;;;5059390;28;20202;-70
2021/06/28 06:48:09;;;;;;;21.40;7.88;;;19.80;99.90;;;;;;5060137;28;20672;-71
2021/06/28 06:50:36;;;;;;;16.23;7.47;;;19.80;99.90;;;;;;5071642;28;20252;-71
2021/06/28 06:53:05;;;;;;;11.98;7.50;;;19.90;99.90;;;;;;5071401;28;20660;-71
2021/06/28 06:55:34;;;;;;;10.27;7.13;;;20.10;99.90;;;;;;5063870;28;20612;-70
2021/06/28 06:58:01;;;;;;;10.38;7.00;;;20.10;99.90;;;;;;5052406;28;20660;-71
2021/06/28 07:00:28;;;;;;;14.38;7.57;;;20.40;99.90;;;;;;5051291;28;20249;-70
2021/06/28 07:02:55;;;;;;;9.93;6.70;;;20.50;99.90;;;;;;5051871;28;20301;-73
2021/06/28 07:05:22;;;;;;;8.95;7.15;;;20.70;99.90;;;;;;5053548;28;20207;-73
2021/06/28 07:07:49;;;;;;;9.70;7.10;;;20.80;99.90;;;;;;5052227;28;20248;-73
2021/06/28 07:10:18;;;;;;;10.27;7.35;;;21.00;99.90;;;;;;5050815;28;20203;-72
2021/06/28 07:12:46;;;;;;;9.38;7.50;;;21.20;99.90;;;;;;5052227;28;20230;-73
2021/06/28 07:15:16;;;;;;;9.73;7.78;;;21.30;99.90;;;;;;5070927;28;20572;-73
2021/06/28 07:17:43;;;;;;;9.02;7.05;;;21.60;99.90;;;;;;5072102;28;20217;-73
2021/06/28 07:20:13;;;;;;;8.05;6.97;;;21.70;99.90;;;;;;5072340;28;20199;-73
2021/06/28 07:22:40;;;;;;;9.93;7.57;;;21.70;99.90;;;;;;5068899;28;20202;-72
2021/06/28 07:25:09;;;;;;;10.65;7.60;;;21.70;99.90;;;;;;5060657;28;20277;-72
2021/06/28 07:27:38;;;;;;;11.68;7.55;;;21.80;99.90;;;;;;5060771;28;20206;-70
2021/06/28 07:30:09;;;;;;;10.13;6.22;;;21.80;99.90;;;;;;5065137;28;20203;-75
2021/06/28 07:32:36;;;;;;;10.65;7.28;;;22.00;99.90;;;;;;5067224;28;20299;-70
2021/06/28 07:35:03;;;;;;;8.60;6.25;;;22.10;99.90;;;;;;5068668;28;20512;-70
2021/06/28 07:37:31;;;;;;;7.43;6.30;;;22.30;99.90;;;;;;5070136;28;20440;-72
2021/06/28 07:39:59;;;;;;;9.50;6.00;;;22.30;99.90;;;;;;5070530;28;20280;-70
2021/06/28 07:42:26;;;;;;;9.63;6.22;;;22.40;99.90;;;;;;5070687;28;20206;-70
2021/06/28 07:44:54;;;;;;;13.23;6.93;;;22.40;99.90;;;;;;5061260;28;20192;-70
2021/06/28 07:47:21;;;;;;;10.50;7.03;;;22.30;99.90;;;;;;5058552;28;20668;-72
2021/06/28 07:49:48;;;;;;;9.18;6.55;;;22.40;99.90;;;;;;5070787;28;20568;-75
2021/06/28 07:52:15;;;;;;;13.13;6.65;;;22.60;99.90;;;;;;5071208;28;20263;-70
2021/06/28 07:54:44;;;;;;;12.15;6.40;;;22.40;99.90;;;;;;5053376;28;20256;-75
2021/06/28 07:57:12;;;;;;;10.85;6.55;;;22.60;99.90;;;;;;5071554;28;20280;-72
2021/06/28 07:59:39;;;;;;;8.65;5.93;;;22.70;99.90;;;;;;5070801;28;20645;-75
2021/06/28 08:02:07;;;;;;;8.60;6.28;;;22.90;99.90;;;;;;5069515;28;20205;-72
2021/06/28 08:04:34;;;;;;;6.45;5.80;;;23.00;99.90;;;;;;5070794;28;20194;-72
2021/06/28 08:07:01;;;;;;;9.57;6.82;;;22.90;99.90;;;;;;5070932;28;20210;-73
2021/06/28 08:09:28;;;;;;;5.85;5.25;;;22.90;99.90;;;;;;5070983;28;20613;-72
2021/06/28 08:11:57;;;;;;;7.15;5.50;;;22.90;99.90;;;;;;5068242;28;20264;-73
2021/06/28 08:14:24;;;;;;;8.57;5.95;;;23.00;99.90;;;;;;5087231;22;20249;-71
2021/06/28 08:16:51;;;;;;;7.63;5.88;;;23.00;99.90;;;;;;5071524;28;20581;-72
2021/06/28 08:19:19;;;;;;;7.15;5.75;;;23.10;99.90;;;;;;5071314;28;20210;-73
2021/06/28 08:21:48;;;;;;;13.15;6.25;;;23.30;99.90;;;;;;5070952;28;20209;-72
2021/06/28 08:24:16;;;;;;;13.43;6.50;;;23.30;99.90;;;;;;5071384;28;20233;-72
2021/06/28 08:26:44;;;;;;;13.52;6.25;;;23.40;99.90;;;;;;5071662;28;20210;-72
2021/06/28 08:29:12;;;;;;;13.32;6.80;;;23.40;99.90;;;;;;5071475;28;20711;-72
2021/06/28 08:31:40;;;;;;;7.57;5.55;;;23.40;99.90;;;;;;5070163;28;20213;-73
2021/06/28 08:34:07;;;;;;;6.45;5.60;;;23.50;99.90;;;;;;5071204;28;20271;-72
2021/06/28 08:36:35;;;;;;;6.22;5.63;;;23.60;99.90;;;;;;5071032;28;20206;-72
2021/06/28 08:39:03;;;;;;;6.40;5.60;;;23.60;99.90;;;;;;5070946;28;20206;-72
2021/06/28 08:41:31;;;;;;;6.72;6.03;;;23.70;99.90;;;;;;5070497;28;20209;-72
2021/06/28 08:43:57;;;;;;;6.30;5.68;;;23.80;99.90;;;;;;5070057;28;20209;-72
2021/06/28 08:46:25;;;;;;;6.00;5.40;;;23.90;99.90;;;;;;5070343;28;20201;-72
2021/06/28 08:48:51;;;;;;;6.10;5.60;;;24.00;99.90;;;;;;5070014;28;20203;-72
2021/06/28 08:51:20;;;;;;;6.40;5.30;;;24.20;99.90;;;;;;5068520;28;20336;-72
2021/06/28 08:53:52;;;;;;;6.53;5.43;;;24.40;99.90;;;;;;5070515;28;20595;-72
2021/06/28 08:56:20;;;;;;;7.32;5.78;;;24.60;99.90;;;;;;5070519;28;20301;-72
2021/06/28 08:58:47;;;;;;;6.30;5.35;;;25.20;99.90;;;;;;5070282;28;20212;-72
2021/06/28 09:01:14;;;;;;;8.25;6.00;;;25.30;99.90;;;;;;5070015;28;20649;-72
2021/06/28 09:03:41;;;;;;;6.80;5.40;;;25.60;99.90;;;;;;5070312;28;20202;-72
2021/06/28 09:06:10;;;;;;;6.07;5.53;;;25.90;99.90;;;;;;5065043;28;20211;-72
2021/06/28 09:08:37;;;;;;;7.03;5.93;;;25.90;99.90;;;;;;5065318;28;20701;-72
2021/06/28 09:11:17;;;;;;;8.25;5.97;;;26.00;99.90;;;;;;5071762;28;20241;-73
2021/06/28 09:13:47;;;;;;;6.82;5.88;;;26.20;99.90;;;;;;5071409;28;20230;-72
2021/06/28 09:16:17;;;;;;;6.43;5.68;;;26.50;99.90;;;;;;5071882;28;20208;-72
2021/06/28 09:18:58;;;;;;;6.45;5.85;;;26.70;99.90;;;;;;5072199;28;20208;-72
2021/06/28 09:21:31;;;;;;;5.70;5.18;;;27.00;99.90;;;;;;5071452;28;20293;-72
2021/06/28 09:24:00;;;;;;;6.70;5.78;;;27.70;99.90;;;;;;5071895;28;20637;-72
2021/06/28 09:26:32;;;;;;;5.75;5.20;;;27.50;99.90;;;;;;5071768;28;20205;-72
2021/06/28 09:29:01;;;;;;;6.43;5.82;;;27.80;99.90;;;;;;5071887;28;20213;-72
2021/06/28 09:31:37;;;;;;;15.13;6.32;;;27.50;99.90;;;;;;5071294;28;20704;-72
2021/06/28 09:34:12;;;;;;;6.65;5.97;;;27.90;99.90;;;;;;5071850;28;20227;-72
2021/06/28 09:36:48;;;;;;;6.60;5.75;;;27.60;99.90;;;;;;5071629;28;20224;-72
2021/06/28 09:39:24;;;;;;;6.82;6.15;;;27.70;99.90;;;;;;5071606;28;20205;-72
2021/06/28 09:41:58;;;;;;;5.97;5.38;;;28.30;99.90;;;;;;5071014;28;20213;-72
2021/06/28 09:44:26;;;;;;;6.10;5.50;;;28.40;99.90;;;;;;5057485;28;20199;-72
2021/06/28 09:47:10;;;;;;;6.43;5.82;;;28.20;99.90;;;;;;5068858;28;20209;-72
2021/06/28 09:49:38;;;;;;;8.40;5.93;;;28.10;99.90;;;;;;5087134;28;20205;-72
2021/06/28 09:52:07;;;;;;;6.57;5.97;;;28.50;99.90;;;;;;5081878;28;20601;-72
2021/06/28 09:54:35;;;;;;;6.60;5.70;;;29.20;99.90;;;;;;5071531;28;20225;-72
2021/06/28 09:57:06;;;;;;;7.60;5.68;;;28.90;99.90;;;;;;5075097;28;20193;-72
2021/06/28 09:59:36;;;;;;;6.70;5.93;;;28.60;99.90;;;;;;5084206;28;20644;-73
2021/06/28 10:02:22;;;;;;;7.05;6.35;;;28.80;99.90;;;;;;5066349;28;20209;-72
2021/06/28 10:04:56;;;;;;;8.05;6.35;;;28.60;99.90;;;;;;5068119;28;20213;-72
2021/06/28 10:07:32;;;;;;;6.68;6.07;;;28.60;99.90;;;;;;5087621;28;20663;-72
2021/06/28 10:10:14;;;;;;;6.72;6.03;;;29.00;99.90;;;;;;5068150;28;20222;-73
2021/06/28 10:12:44;;;;;;;6.97;5.85;;;29.50;99.90;;;;;;5067793;28;20242;-73
2021/06/28 10:15:14;;;;;;;6.60;6.00;;;29.70;99.90;;;;;;5061954;28;20222;-73
2021/06/28 10:17:41;;;;;;;6.97;5.72;;;29.30;99.90;;;;;;5047654;28;20214;-73
2021/06/28 10:20:12;;;;;;;6.65;5.95;;;29.60;99.90;;;;;;5053918;28;20190;-73
2021/06/28 10:22:40;;;;;;;6.68;5.97;;;29.50;99.90;;;;;;5058886;28;20696;-73
2021/06/28 10:25:10;;;;;;;6.55;5.95;;;28.90;99.90;;;;;;5046994;28;20203;-73
2021/06/28 10:27:38;;;;;;;6.80;5.93;;;28.30;99.90;;;;;;5062723;28;20202;-73
2021/06/28 10:30:09;;;;;;;6.53;5.97;;;28.00;99.90;;;;;;5068066;28;20221;-73
2021/06/28 10:32:37;;;;;;;6.63;5.97;;;28.30;99.90;;;;;;5066754;28;20207;-73
2021/06/28 10:35:07;;;;;;;6.40;5.75;;;28.50;99.90;;;;;;5067195;28;20587;-73
2021/06/28 10:37:36;;;;;;;6.28;5.68;;;28.30;99.90;;;;;;5066027;28;20209;-73
2021/06/28 10:40:07;;;;;;;6.43;5.80;;;28.10;99.90;;;;;;5067616;28;20206;-73
2021/06/28 10:42:37;;;;;;;7.20;6.55;;;28.10;99.90;;;;;;5054794;28;20203;-73
2021/06/28 10:45:09;;;;;;;6.72;5.80;;;28.40;99.90;;;;;;5047108;28;20226;-73
2021/06/28 10:47:36;;;;;;;7.03;5.35;;;28.70;99.90;;;;;;5048918;28;20692;-73
2021/06/28 10:50:05;;;;;;;5.97;5.47;;;28.90;99.90;;;;;;5047191;28;20215;-73
2021/06/28 10:52:48;;;;;;;6.35;5.55;;;28.90;99.90;;;;;;5064739;28;20207;-72
2021/06/28 10:55:41;;;;;;;6.38;5.70;;;29.10;99.90;;;;;;5063454;28;20313;-72
2021/06/28 10:58:28;;;;;;;7.10;5.72;;;29.30;99.90;;;;;;5057119;28;20651;-72
2021/06/28 11:01:08;;;;;;;5.90;5.40;;;29.60;99.90;;;;;;5063653;28;20210;-73
2021/06/28 11:03:36;;;;;;;6.25;5.60;;;29.00;99.90;;;;;;5086600;28;20201;-73
2021/06/28 11:06:22;;;;;;;6.63;6.03;;;28.60;99.90;;;;;;5079641;28;20226;-72
2021/06/28 11:09:08;;;;;;;6.53;5.93;;;28.50;99.90;;;;;;5082160;28;20618;-72
2021/06/28 11:11:57;;;;;;;6.10;5.60;;;28.40;99.90;;;;;;5086709;28;20214;-71
2021/06/28 11:14:43;;;;;;;6.40;5.75;;;28.70;99.90;;;;;;5070362;28;20232;-71
2021/06/28 11:17:15;;;;;;;5.80;5.30;;;29.00;99.90;;;;;;5050512;28;20207;-71
2021/06/28 11:20:02;;;;;;;6.20;5.60;;;28.70;99.90;;;;;;5050606;28;20213;-71
2021/06/28 11:22:37;;;;;;;5.50;5.00;;;29.00;99.90;;;;;;5066721;28;20242;-71
2021/06/28 11:25:12;;;;;;;6.30;5.70;;;28.90;99.90;;;;;;5066055;28;20202;-71
2021/06/28 11:27:41;;;;;;;5.75;5.22;;;28.80;99.90;;;;;;5059387;28;20555;-70
2021/06/28 11:30:19;;;;;;;5.85;5.35;;;28.80;99.90;;;;;;5065998;28;20202;-71
2021/06/28 11:32:59;;;;;;;6.18;5.57;;;28.70;99.90;;;;;;5059060;28;20618;-71
2021/06/28 11:35:41;;;;;;;5.53;5.03;;;28.80;99.90;;;;;;5046335;28;20589;-71
2021/06/28 11:38:20;;;;;;;5.75;5.30;;;28.80;99.90;;;;;;5063768;28;20214;-71
2021/06/28 11:40:52;;;;;;;6.55;5.95;;;28.90;99.90;;;;;;5068390;28;20663;-71
2021/06/28 11:43:37;;;;;;;6.47;5.85;;;29.00;99.90;;;;;;5068954;28;20743;-71
2021/06/28 11:46:05;;;;;;;5.93;5.40;;;28.90;99.90;;;;;;5069114;28;20224;-71
2021/06/28 11:48:35;;;;;;;6.10;5.50;;;29.00;99.90;;;;;;5068422;28;20202;-71
2021/06/28 11:51:16;;;;;;;7.18;5.57;;;28.90;99.90;;;;;;5069883;28;20672;-71
2021/06/28 11:53:43;;;;;;;7.05;5.50;;;29.20;99.90;;;;;;5065311;28;20214;-71
2021/06/28 11:56:20;;;;;;;6.25;5.63;;;29.10;99.90;;;;;;5060711;28;20210;-71
2021/06/28 11:58:54;;;;;;;6.22;5.70;;;29.20;99.90;;;;;;5048980;28;20245;-71
2021/06/28 12:01:23;;;;;;;6.20;5.60;;;29.20;99.90;;;;;;5059685;28;20204;-71
2021/06/28 12:03:51;;;;;;;6.65;5.90;;;29.40;99.90;;;;;;5061239;28;20195;-71
2021/06/28 12:06:18;;;;;;;6.68;6.05;;;29.50;99.90;;;;;;5062299;28;20747;-71
2021/06/28 12:08:45;;;;;;;6.90;6.20;;;29.50;99.90;;;;;;5052617;28;20203;-71
2021/06/28 12:11:13;;;;;;;6.80;6.10;;;29.50;99.90;;;;;;5072834;28;20202;-71
2021/06/28 12:13:42;;;;;;;7.53;6.53;;;29.50;99.90;;;;;;5084440;28;20209;-71
2021/06/28 12:16:21;;;;;;;7.40;6.53;;;29.50;99.90;;;;;;5068656;28;20206;-70
2021/06/28 12:18:48;;;;;;;6.50;5.90;;;29.20;99.90;;;;;;5055088;28;20209;-70
2021/06/28 12:21:28;;;;;;;6.60;6.10;;;29.30;99.90;;;;;;5062595;28;20664;-70
2021/06/28 12:24:07;;;;;;;7.22;6.63;;;29.40;99.90;;;;;;5067587;28;20194;-71
2021/06/28 12:26:34;;;;;;;10.15;7.30;;;29.50;99.90;;;;;;5069332;28;20206;-71
2021/06/28 12:29:26;;;;;;;7.13;6.10;;;29.50;99.90;;;;;;5069999;28;20678;-71
2021/06/28 12:32:00;;;;;;;6.63;5.88;;;29.30;99.90;;;;;;5058432;28;20199;-71
2021/06/28 12:34:27;;;;;;;8.98;6.78;;;29.10;99.90;;;;;;5061212;28;20805;-71
2021/06/28 12:36:55;;;;;;;7.10;6.35;;;29.20;99.90;;;;;;5051788;28;20225;-71
2021/06/28 12:39:23;;;;;;;6.45;5.85;;;29.40;99.90;;;;;;5062265;28;20198;-71
2021/06/28 12:41:50;;;;;;;7.30;6.60;;;29.10;99.90;;;;;;5049819;28;20588;-71
2021/06/28 12:44:17;;;;;;;6.70;6.10;;;29.40;99.90;;;;;;5056409;28;20571;-71
2021/06/28 12:46:45;;;;;;;6.90;6.28;;;29.20;99.90;;;;;;5060389;28;20199;-71
2021/06/28 12:49:12;;;;;;;7.63;6.68;;;29.30;99.90;;;;;;5064055;28;20206;-71
2021/06/28 12:51:39;;;;;;;8.50;6.68;;;29.20;99.90;;;;;;5053031;28;20564;-71
2021/06/28 12:54:26;;;;;;;7.22;6.18;;;29.20;99.90;;;;;;5061316;28;20312;-71
2021/06/28 12:56:53;;;;;;;7.05;6.35;;;28.50;99.90;;;;;;5057395;28;20194;-71